Mato Grosso, Brazil
Current Conditions -  °F | °C
As of 7:00 AM on Thursday 18 Dec 2014 (Local Time) from SLSI Reporting Station
Broken Clouds Broken Clouds  
Wind Chill: 73°   Ceiling: 7000
Heat Index: 73°   Visibility: 6mi
Dew Point: 72°   Wind: 0mph
Humidity: 94%   Direction: NA
Pressure: 29.83"   Gusts: NA
Location:  15.01°S, 59.94°W
Report Text: SLSI 181000Z 00000KT 9999 BKN070 23/22 Q1010
Loading
Personal Weather Stations






























Interactive Weather Map New forecast layout! Learn more

10-Day Weather Forecast

Advertisements
Track Severe Weather on mobile